Kenner, LA

2:28 PM CDT on September 16, 2014 (GMT -0500)
New Orleans International | Change Station
CLOSE
Current Station
Airport
Location: New Orleans,
Elevation: 3 ft
Nearby Weather Stations

Elev 3 ft 29.99 °N, 90.25 °W | Updated 35 minutes ago

Mostly Cloudy
Mostly Cloudy
84 °F
Feels Like 89 °F
N
5
Wind Variable Wind from South

Today
High -- | Low -- °F
--% Chance of Precip.
Yesterday
High -- | Low -- °F
Precip. -- in
6:46 AM 7:05 PM
Last Quarter, 43% visible
Pressure 30.02 in
Visibility 10.0 miles
Clouds Few 3000 ft
Few 15000 ft
Mostly Cloudy 25000 ft
Heat Index 89 °F
Dew Point 71 °F
Humidity 65%
Rainfall 0.00 in
Snow Depth Not available.
UV 6 out of 12
Pollen 9.10 out of 12
Ozone Good
PM2.5 Good
Flu Activity Not available.
METAR KMSY 161853Z 17004KT 10SM FEW030 FEW150 BKN250 29/22 A3001 RMK AO2 RAB1756E10 TSB06E27 SLP166 CB DSNT ALQDS P0000 T02890217

More Conditions Fewer Conditions

Pressure 30.02 in
Visibility 10.0 miles
Clouds Few 3000 ft
Few 15000 ft
Mostly Cloudy 25000 ft
Heat Index 89 °F
Dew Point 71 °F
Humidity 65%
Rainfall 0.00 in
Snow Depth Not available.
UV 6 out of 12
Pollen 9.10 out of 12
Ozone Good
PM2.5 Good
Flu Activity Not available.
METAR KMSY 161853Z 17004KT 10SM FEW030 FEW150 BKN250 29/22 A3001 RMK AO2 RAB1756E10 TSB06E27 SLP166 CB DSNT ALQDS P0000 T02890217

More Conditions Fewer Conditions

10-Day Weather Forecast

Almanac

Astronomy

Sep. 16, 2014 Rise Set
Actual Time 6:46 AM CDT 7:05 PM CDT
Civil Twilight 6:22 AM CDT 7:28 PM CDT
Nautical Twilight 5:54 AM CDT 7:56 PM CDT
Astronomical Twilight 5:25 AM CDT 8:25 PM CDT
Moon 12:14 AM CDT 2:10 PM CDT
Length of Visible Light 13h 06m
Length of Day
12h 18m
Tomorrow will be 1m 47s shorter.
Last Quarter, 43% of the Moon is Illuminated
Today
Last Quarter
Sep 24
New
Oct 1
First Quarter
Oct 8
Full
Oct 15
Last Quarter

Today's Extremes

State Highs State Lows

Community

WunderPhotos

Upload Photos

1,753,860 photos uploaded!

WunderBlogs® & News

Nearby

Air Quality

  Air Quality AQ Index Pollutant
Yesterday Good
PM2.5
Yesterday Good
OZONE
Current Good
PM2.5
Current Good
OZONE
Tuesday Moderate
PM2.5
Tuesday Good
OZONE
Wednesday Moderate
PM2.5
Wednesday Good
OZONE

Snow Depth

Station Depth Elevation
No new snow has been reported.

Earthquake Activity

City Distance Mag. Time & Date
No recent earthquake activity has been reported nearby.
Minimum magnitude displayed is 2.5.

Coastal Water Temperatures

Place Temperature
New Canal, LA 84.0 °F
Shell Beach, LA 80.1 °F
Bayou Gauche, LA 87.1 °F

Nearby Weather Stations